Terminal Aerodrome Forecast
Issued by NWS

Home | Current Version | Previous Version | Text Only | Print | Product List | Glossary On
Versions: 1 2 3 4 5 6 7 8 9 10 11 12
000
FTAK31 PAFA 250539
TAFAMC
TAF
PAMC 250539Z 2506/2606 03004KT P6SM OVC100
     FM251000 33005KT P6SM OVC050
     FM251400 02001KT 6SM -SHRASN BR OVC025
     FM251900 VRB03KT 6SM BR VCSH SCT025 BKN050=

USA.gov is the U.S. government's official web portal to all federal, state and local government web resources and services.